Terminal Aerodrome Forecast
Issued by NWS Memphis, TN

Home | Current Version | Previous Version | Text Only | Print | Product List | Glossary On
Versions: 1 2 3 4 5 6 7 8 9 10 11 12 13 14 15 16 17 18
000
FTUS44 KMEG 011100
TAFJBR
TAF
KJBR 011130Z 0112/0212 04005KT P6SM VCSH BKN060 OVC100
     FM011600 10005KT P6SM SCT060 BKN120
     FM020100 VRB03KT P6SM FEW100 BKN150=

USA.gov is the U.S. government's official web portal to all federal, state and local government web resources and services.